Time;durP1;ratioP1;P1;durP2;ratioP2;P2;SDS_P1;SDS_P2;PMS_P1;PMS_P2;Temp;Humidity;BMP_temperature;BMP_pressure;BME280_temperature;BME280_humidity;BME280_pressure;Samples;Min_cycle;Max_cycle;Signal;HPM_P1;HPM_P2
2021/03/09 00:01:21;;;;;;;3.33;1.70;;;;;;;-10.21;77.57;93178.80;1814019;78;21761;-74
2021/03/09 00:03:48;;;;;;;3.70;2.20;;;;;;;-10.28;77.31;93180.45;1832684;78;21301;-75
2021/03/09 00:06:16;;;;;;;3.67;2.17;;;;;;;-10.33;77.42;93185.75;1797064;79;21152;-74
2021/03/09 00:08:43;;;;;;;4.13;2.20;;;;;;;-10.37;77.63;93183.41;1795749;78;21174;-75
2021/03/09 00:11:11;;;;;;;9.23;3.90;;;;;;;-10.35;77.82;93180.73;1795734;79;21171;-74
2021/03/09 00:13:38;;;;;;;5.60;3.20;;;;;;;-10.31;77.74;93186.24;1796050;78;21639;-75
2021/03/09 00:16:06;;;;;;;7.97;4.07;;;;;;;-10.25;77.44;93185.70;1806405;78;21628;-74
2021/03/09 00:18:34;;;;;;;6.13;3.57;;;;;;;-10.21;77.12;93180.13;1839771;78;21162;-73
2021/03/09 00:21:02;;;;;;;3.27;2.63;;;;;;;-10.19;76.91;93179.30;1840112;78;21129;-74
2021/03/09 00:23:29;;;;;;;4.10;2.20;;;;;;;-10.18;76.71;93177.73;1805963;78;21101;-74
2021/03/09 00:25:58;;;;;;;9.03;4.47;;;;;;;-10.23;76.57;93177.75;1821040;78;22305;-73
2021/03/09 00:28:26;;;;;;;42.03;17.63;;;;;;;-10.23;76.53;93186.95;1839636;78;21171;-76
2021/03/09 00:30:53;;;;;;;20.23;8.20;;;;;;;-10.28;76.04;93176.50;1839827;78;21044;-74
2021/03/09 00:33:21;;;;;;;14.90;6.27;;;;;;;-10.35;75.90;93178.11;1839263;78;21489;-72
2021/03/09 00:35:49;;;;;;;13.00;5.93;;;;;;;-10.38;76.06;93175.23;1839900;77;21091;-74
2021/03/09 00:38:16;;;;;;;7.43;3.83;;;;;;;-10.44;75.93;93174.49;1839549;77;21180;-73
2021/03/09 00:40:44;;;;;;;6.70;4.30;;;;;;;-10.53;75.91;93168.22;1820658;78;21084;-74
2021/03/09 00:43:11;;;;;;;7.53;4.07;;;;;;;-10.57;76.16;93168.50;1806223;78;21075;-73
2021/03/09 00:45:41;;;;;;;5.23;3.27;;;;;;;-10.56;76.38;93167.47;1839628;78;21169;-73
2021/03/09 00:48:09;;;;;;;65.90;27.17;;;;;;;-10.53;76.40;93168.22;1838657;78;21154;-74
2021/03/09 00:50:37;;;;;;;77.57;33.53;;;;;;;-10.50;76.30;93169.52;1839926;77;21352;-74
2021/03/09 00:53:05;;;;;;;76.77;30.57;;;;;;;-10.47;76.66;93164.52;1840939;77;21170;-74
2021/03/09 00:55:32;;;;;;;70.33;29.10;;;;;;;-10.41;76.72;93166.07;1841172;77;21040;-73
2021/03/09 00:58:00;;;;;;;80.10;37.50;;;;;;;-10.37;76.94;93165.00;1839347;78;21656;-74
2021/03/09 01:00:29;;;;;;;47.57;21.67;;;;;;;-10.36;76.88;93167.88;1839692;78;21150;-73
2021/03/09 01:02:57;;;;;;;16.13;7.57;;;;;;;-10.41;76.35;93168.70;1802094;78;21357;-73
2021/03/09 01:05:26;;;;;;;15.13;7.47;;;;;;;-10.43;76.16;93170.02;1826325;78;21121;-73
2021/03/09 01:07:53;;;;;;;12.70;6.23;;;;;;;-10.41;76.15;93173.95;1820022;78;21176;-74
2021/03/09 01:10:22;;;;;;;10.80;5.80;;;;;;;-10.38;76.21;93166.84;1807085;78;21253;-72
2021/03/09 01:12:50;;;;;;;2.13;1.63;;;;;;;-10.35;75.93;93172.85;1839964;78;21129;-74
2021/03/09 01:15:17;;;;;;;3.87;2.10;;;;;;;-10.34;75.89;93167.88;1840161;78;21066;-73
2021/03/09 01:17:45;;;;;;;6.33;3.10;;;;;;;-10.35;75.92;93162.87;1807023;78;21152;-74
2021/03/09 01:20:13;;;;;;;9.70;4.90;;;;;;;-10.36;75.90;93159.45;1798375;79;21172;-74
2021/03/09 01:22:41;;;;;;;5.70;2.63;;;;;;;-10.40;75.67;93159.75;1811045;78;21101;-74
2021/03/09 01:25:11;;;;;;;4.93;3.30;;;;;;;-10.42;75.68;93154.50;1840054;77;21154;-75
2021/03/09 01:27:38;;;;;;;4.87;2.70;;;;;;;-10.52;75.70;93149.56;1840268;78;22151;-75
2021/03/09 01:30:09;;;;;;;4.50;2.50;;;;;;;-10.56;76.12;93148.53;1839779;77;21170;-75
2021/03/09 01:32:37;;;;;;;3.83;2.87;;;;;;;-10.54;76.15;93138.52;1839921;77;21166;-75
2021/03/09 01:35:08;;;;;;;3.17;2.33;;;;;;;-10.47;76.25;93151.38;1818777;78;21195;-75
2021/03/09 01:37:35;;;;;;;7.87;5.27;;;;;;;-10.41;76.09;93147.67;1808488;78;21042;-74
2021/03/09 01:40:07;;;;;;;8.53;4.67;;;;;;;-10.38;75.87;93145.00;1839155;77;21195;-74
2021/03/09 01:42:35;;;;;;;52.63;21.33;;;;;;;-10.36;75.66;93142.38;1840154;78;21052;-75
2021/03/09 01:45:04;;;;;;;75.50;30.77;;;;;;;-10.37;75.48;93143.97;1840707;77;21043;-76
2021/03/09 01:47:33;;;;;;;54.67;25.00;;;;;;;-10.38;75.63;93147.13;1839630;77;21028;-75
2021/03/09 01:50:01;;;;;;;20.80;9.53;;;;;;;-10.36;75.86;93143.69;1840009;77;21158;-75
2021/03/09 01:52:29;;;;;;;67.13;28.67;;;;;;;-10.32;75.86;93149.19;1832177;78;22094;-74
2021/03/09 01:54:56;;;;;;;83.93;35.20;;;;;;;-10.30;76.01;93153.12;1797870;79;21159;-74
2021/03/09 01:57:24;;;;;;;24.30;12.00;;;;;;;-10.30;75.92;93151.03;1837915;78;21133;-75
2021/03/09 01:59:53;;;;;;;65.50;30.30;;;;;;;-10.27;75.92;93145.20;1839292;78;21189;-74
2021/03/09 02:02:20;;;;;;;69.77;28.33;;;;;;;-10.26;75.85;93149.42;1817484;78;21152;-74
2021/03/09 02:04:48;;;;;;;59.20;26.57;;;;;;;-10.30;75.83;93158.38;1772670;80;21361;-74
2021/03/09 02:07:16;;;;;;;59.53;25.90;;;;;;;-10.34;75.89;93151.29;1798345;78;21157;-75
2021/03/09 02:09:43;;;;;;;49.30;22.27;;;;;;;-10.32;76.00;93151.81;1840869;78;21027;-75
2021/03/09 02:12:24;;;;;;;55.83;25.13;;;;;;;-10.31;75.96;93147.59;1803944;77;21081;-75
2021/03/09 02:15:19;;;;;;;58.30;25.50;;;;;;;-10.35;76.00;93154.45;1827934;78;21050;-74
2021/03/09 02:18:10;;;;;;;56.63;23.20;;;;;;;-10.39;76.03;93159.22;1840110;77;21786;-73
2021/03/09 02:21:05;;;;;;;59.43;25.30;;;;;;;-10.43;76.18;93142.41;1840016;77;21133;-74
2021/03/09 02:24:01;;;;;;;62.10;25.80;;;;;;;-10.48;76.15;93151.13;1839603;78;21123;-75
2021/03/09 02:26:41;;;;;;;58.47;24.07;;;;;;;-10.52;76.30;93153.51;1839905;78;21409;-74
2021/03/09 02:29:36;;;;;;;61.73;26.47;;;;;;;-10.49;76.79;93152.69;1823654;78;21184;-76
2021/03/09 02:32:11;;;;;;;57.97;24.80;;;;;;;-10.47;76.75;93151.38;1797300;78;21775;-72
2021/03/09 02:34:50;;;;;;;63.23;28.10;;;;;;;-10.47;76.77;93160.57;1805593;77;21295;-75
2021/03/09 02:37:17;;;;;;;59.03;25.83;;;;;;;-10.48;76.80;93159.01;1840276;78;21579;-74
2021/03/09 02:39:46;;;;;;;57.13;24.60;;;;;;;-10.48;76.69;93160.86;1814529;77;21159;-74
2021/03/09 02:42:24;;;;;;;66.83;29.13;;;;;;;-10.49;76.58;93161.39;1839695;77;21605;-74
2021/03/09 02:44:53;;;;;;;55.47;25.87;;;;;;;-10.48;76.62;93160.86;1812120;77;21336;-74
2021/03/09 02:47:20;;;;;;;71.10;28.83;;;;;;;-10.46;76.62;93170.55;1815608;78;21109;-74
2021/03/09 02:49:48;;;;;;;69.00;29.13;;;;;;;-10.46;76.66;93170.55;1839907;77;21534;-74
2021/03/09 02:52:18;;;;;;;57.37;26.37;;;;;;;-10.43;77.01;93173.96;1840132;78;21174;-73
2021/03/09 02:54:45;;;;;;;63.63;27.97;;;;;;;-10.40;77.24;93168.17;1840090;77;21585;-73
2021/03/09 02:57:13;;;;;;;62.13;28.80;;;;;;;-10.37;77.12;93168.41;1808150;77;21866;-75
2021/03/09 02:59:41;;;;;;;65.43;29.17;;;;;;;-10.35;77.09;93170.22;1798342;79;21168;-74
2021/03/09 03:02:09;;;;;;;71.33;30.23;;;;;;;-10.32;76.79;93177.57;1811491;78;21571;-74
2021/03/09 03:04:37;;;;;;;62.67;29.07;;;;;;;-10.29;76.85;93177.56;1811169;78;21126;-74
2021/03/09 03:07:05;;;;;;;66.77;29.77;;;;;;;-10.23;76.75;93175.12;1798134;79;21719;-73
2021/03/09 03:09:32;;;;;;;85.93;33.70;;;;;;;-10.23;76.54;93178.28;1783219;79;21420;-73
2021/03/09 03:12:00;;;;;;;87.50;37.87;;;;;;;-10.24;76.50;93178.03;1820763;78;21143;-73
2021/03/09 03:14:27;;;;;;;77.07;33.93;;;;;;;-10.26;76.25;93177.56;1826429;78;21194;-73
2021/03/09 03:16:55;;;;;;;70.03;33.47;;;;;;;-10.33;75.98;93176.01;1828575;77;21166;-74
2021/03/09 03:19:22;;;;;;;74.70;31.77;;;;;;;-10.40;75.92;93176.84;1840069;78;21108;-73
2021/03/09 03:21:50;;;;;;;75.83;31.93;;;;;;;-10.46;75.94;93179.75;1812309;78;22522;-72
2021/03/09 03:24:17;;;;;;;69.60;29.07;;;;;;;-10.52;76.12;93177.16;1831977;78;21146;-74
2021/03/09 03:26:46;;;;;;;70.13;30.10;;;;;;;-10.52;76.40;93177.69;1840004;77;21110;-74
2021/03/09 03:29:13;;;;;;;76.87;31.60;;;;;;;-10.55;76.39;93176.38;1828397;78;21054;-73
2021/03/09 03:31:41;;;;;;;86.50;38.40;;;;;;;-10.56;76.50;93181.39;1798776;78;21160;-75
2021/03/09 03:34:09;;;;;;;107.60;45.20;;;;;;;-10.55;76.62;93178.23;1813316;78;21793;-74
2021/03/09 03:36:36;;;;;;;107.10;44.43;;;;;;;-10.56;76.35;93180.61;1800287;79;21400;-74
2021/03/09 03:39:05;;;;;;;86.17;36.17;;;;;;;-10.62;76.20;93180.36;1825801;78;21582;-73
2021/03/09 03:41:32;;;;;;;90.53;37.70;;;;;;;-10.59;76.30;93182.45;1822865;78;21627;-75
2021/03/09 03:44:00;;;;;;;81.47;35.73;;;;;;;-10.60;76.17;93185.61;1796930;78;21292;-75
2021/03/09 03:46:28;;;;;;;80.20;34.50;;;;;;;-10.63;76.07;93185.37;1797762;78;21781;-75
2021/03/09 03:48:55;;;;;;;86.90;36.80;;;;;;;-10.69;76.27;93187.21;1797804;78;21073;-74
2021/03/09 03:51:32;;;;;;;77.70;34.00;;;;;;;-10.70;76.34;93193.53;1828724;78;21035;-75
2021/03/09 03:54:31;;;;;;;100.57;38.60;;;;;;;-10.73;76.50;93191.97;1840324;78;21124;-74
2021/03/09 03:57:08;;;;;;;87.67;37.60;;;;;;;-10.76;76.66;93199.31;1808277;77;21095;-75
2021/03/09 03:59:38;;;;;;;91.77;36.77;;;;;;;-10.75;76.50;93200.13;1840205;78;21180;-74
2021/03/09 04:02:09;;;;;;;93.70;36.43;;;;;;;-10.73;76.21;93200.63;1839849;78;21294;-74
2021/03/09 04:04:38;;;;;;;72.33;33.50;;;;;;;-10.72;76.42;93204.83;1839741;78;21585;-74
2021/03/09 04:07:06;;;;;;;82.20;36.50;;;;;;;-10.66;76.33;93205.08;1840209;77;21123;-74
2021/03/09 04:09:34;;;;;;;76.10;32.63;;;;;;;-10.67;76.81;93202.73;1787131;79;21104;-74
2021/03/09 04:12:02;;;;;;;85.00;36.20;;;;;;;-10.67;76.96;93202.73;1828726;77;21577;-74
2021/03/09 04:14:32;;;;;;;85.00;35.77;;;;;;;-10.65;76.87;93203.23;1839389;77;21094;-75
2021/03/09 04:17:01;;;;;;;82.93;38.23;;;;;;;-10.66;76.64;93212.95;1806264;78;21127;-74
2021/03/09 04:19:29;;;;;;;79.53;34.43;;;;;;;-10.66;76.54;93212.17;1839975;78;21130;-73
2021/03/09 04:21:58;;;;;;;75.23;35.43;;;;;;;-10.65;76.58;93217.15;1819109;77;21151;-73
2021/03/09 04:24:26;;;;;;;77.53;34.97;;;;;;;-10.63;76.41;93210.33;1846391;77;21345;-74
2021/03/09 04:26:53;;;;;;;70.83;35.17;;;;;;;-10.62;75.99;93204.79;1817309;77;21072;-74
2021/03/09 04:29:21;;;;;;;71.60;35.30;;;;;;;-10.60;76.28;93211.11;1834636;77;21171;-74
2021/03/09 04:31:49;;;;;;;66.40;30.00;;;;;;;-10.58;76.50;93212.92;1803026;79;21168;-74
2021/03/09 04:34:18;;;;;;;59.97;30.73;;;;;;;-10.58;76.50;93206.36;1819219;77;21151;-74
2021/03/09 04:36:45;;;;;;;65.73;29.30;;;;;;;-10.62;76.31;93208.73;1845387;77;21781;-75
2021/03/09 04:39:13;;;;;;;69.23;31.20;;;;;;;-10.68;76.22;93210.33;1817194;77;21088;-75
2021/03/09 04:41:40;;;;;;;59.60;29.50;;;;;;;-10.74;76.14;93209.58;1842795;77;21105;-75
2021/03/09 04:44:08;;;;;;;75.70;30.00;;;;;;;-10.75;75.80;93208.02;1844134;77;21676;-75
2021/03/09 04:46:36;;;;;;;56.10;26.00;;;;;;;-10.78;75.57;93211.95;1842653;77;21163;-74
2021/03/09 04:49:05;;;;;;;60.47;27.67;;;;;;;-10.83;75.49;93219.86;1842210;77;21136;-73
2021/03/09 04:51:37;;;;;;;66.37;29.00;;;;;;;-10.88;75.41;93217.23;1842597;77;21164;-73
2021/03/09 04:54:05;;;;;;;68.80;30.90;;;;;;;-10.89;75.39;93217.51;1842731;77;21124;-75
2021/03/09 04:56:33;;;;;;;58.43;26.87;;;;;;;-10.90;75.22;93221.98;1819608;77;21040;-74
2021/03/09 04:59:02;;;;;;;63.27;26.90;;;;;;;-10.90;74.99;93225.14;1854329;77;21522;-74
2021/03/09 05:01:29;;;;;;;77.00;33.00;;;;;;;-10.88;74.80;93224.33;1799466;79;21497;-74
2021/03/09 05:03:58;;;;;;;68.03;31.33;;;;;;;-10.91;74.57;93224.85;1777065;79;21643;-74
2021/03/09 05:06:25;;;;;;;80.47;36.13;;;;;;;-10.96;74.46;93226.19;1810269;76;21156;-74
2021/03/09 05:08:53;;;;;;;77.47;32.70;;;;;;;-10.99;74.51;93230.13;1829576;77;21152;-75
2021/03/09 05:11:22;;;;;;;53.87;25.07;;;;;;;-11.02;74.45;93231.47;1801958;79;21141;-73
2021/03/09 05:13:51;;;;;;;54.77;25.27;;;;;;;-11.03;74.64;93229.88;1803201;79;21245;-74
2021/03/09 05:16:19;;;;;;;58.10;28.87;;;;;;;-11.07;74.54;93230.14;1838833;77;21543;-73
2021/03/09 05:18:47;;;;;;;74.73;34.47;;;;;;;-11.19;74.29;93233.59;1815726;77;21157;-74
2021/03/09 05:21:16;;;;;;;78.00;35.17;;;;;;;-11.31;74.34;93226.52;1801228;79;21231;-74
2021/03/09 05:23:44;;;;;;;66.57;30.87;;;;;;;-11.40;74.38;93226.25;1812744;77;21029;-73
2021/03/09 05:26:13;;;;;;;56.90;27.97;;;;;;;-11.45;74.63;93223.64;1842643;77;21415;-74
2021/03/09 05:28:40;;;;;;;74.63;35.53;;;;;;;-11.47;74.49;93228.88;1803091;79;21056;-75
2021/03/09 05:31:08;;;;;;;95.17;46.37;;;;;;;-11.54;74.35;93231.80;1802936;79;21133;-74
2021/03/09 05:33:35;;;;;;;76.53;37.80;;;;;;;-11.59;74.58;93226.00;1803216;79;21021;-74
2021/03/09 05:36:03;;;;;;;69.07;35.53;;;;;;;-11.55;74.76;93229.67;1803335;79;21042;-74
2021/03/09 05:38:31;;;;;;;71.20;34.57;;;;;;;-11.52;74.49;93230.98;1802582;79;21619;-74
2021/03/09 05:41:01;;;;;;;110.87;48.57;;;;;;;-11.43;74.67;93232.55;1802493;79;21172;-72
2021/03/09 05:43:31;;;;;;;102.73;48.80;;;;;;;-11.18;75.14;93234.38;1801789;79;21148;-74
2021/03/09 05:45:59;;;;;;;88.37;42.00;;;;;;;-10.57;75.82;93231.07;1802406;79;21156;-76
2021/03/09 05:48:27;;;;;;;76.37;37.03;;;;;;;-9.78;75.34;93236.39;1801496;79;21160;-75
2021/03/09 05:50:55;;;;;;;66.33;31.30;;;;;;;-8.97;74.56;93234.18;1810365;77;22325;-74
2021/03/09 05:53:23;;;;;;;64.07;30.83;;;;;;;-8.17;73.67;93233.52;1842120;77;21542;-76
2021/03/09 05:55:51;;;;;;;66.23;33.80;;;;;;;-7.29;71.66;93231.25;1806404;79;21809;-74
2021/03/09 05:58:19;;;;;;;79.63;39.13;;;;;;;-6.64;68.01;93233.29;1811266;77;21136;-75
2021/03/09 06:00:48;;;;;;;71.47;36.57;;;;;;;-6.14;66.25;93236.58;1820445;77;21225;-75
2021/03/09 06:03:16;;;;;;;76.17;34.10;;;;;;;-5.74;63.02;93240.77;1791306;77;21378;-75
2021/03/09 06:05:44;;;;;;;65.73;32.37;;;;;;;-5.79;61.16;93245.64;1836050;77;21144;-75
2021/03/09 06:08:13;;;;;;;58.97;30.60;;;;;;;-6.13;60.33;93242.11;1802194;79;21508;-75
2021/03/09 06:10:41;;;;;;;64.43;34.50;;;;;;;-6.62;60.26;93243.05;1802018;79;21152;-75
2021/03/09 06:13:08;;;;;;;58.50;32.50;;;;;;;-7.05;60.52;93245.65;1829584;77;21108;-78
2021/03/09 06:15:53;;;;;;;61.20;33.30;;;;;;;-7.48;60.91;93251.08;1842303;76;21368;-75
2021/03/09 06:18:25;;;;;;;52.40;29.70;;;;;;;-7.80;61.59;93252.56;1828486;77;21109;-73
2021/03/09 06:21:14;;;;;;;53.10;29.57;;;;;;;-8.01;61.82;93247.30;1802510;79;21340;-74
2021/03/09 06:23:43;;;;;;;58.97;31.23;;;;;;;-8.26;61.78;93261.07;1805043;76;21650;-74
2021/03/09 06:26:34;;;;;;;59.93;31.90;;;;;;;-8.46;62.17;93270.55;1844268;77;21556;-75
2021/03/09 06:29:15;;;;;;;53.17;27.10;;;;;;;-8.63;62.63;93273.64;1776731;80;21358;-74
2021/03/09 06:31:57;;;;;;;54.10;25.07;;;;;;;-8.78;62.99;93280.38;1829072;78;21150;-74
2021/03/09 06:34:30;;;;;;;47.63;24.63;;;;;;;-8.84;63.93;93286.22;1843289;76;21066;-75
2021/03/09 06:37:25;;;;;;;51.50;24.40;;;;;;;-8.85;64.06;93281.48;1845985;76;21126;-74
2021/03/09 06:40:03;;;;;;;64.60;28.77;;;;;;;-8.89;64.09;93281.78;1845251;77;21210;-75
2021/03/09 06:42:35;;;;;;;74.87;35.60;;;;;;;-8.97;64.20;93281.61;1845228;76;21345;-74
2021/03/09 06:45:16;;;;;;;89.60;44.70;;;;;;;-9.02;64.71;93277.17;1844729;77;21279;-75
2021/03/09 06:47:46;;;;;;;63.37;32.17;;;;;;;-9.01;64.87;93281.91;1845565;77;21569;-76
2021/03/09 06:50:20;;;;;;;65.50;33.40;;;;;;;-8.99;65.47;93277.91;1847071;77;21208;-78
2021/03/09 06:53:00;;;;;;;65.05;32.88;;;;;;;-8.91;65.64;93271.25;1846475;77;21143;-77
2021/03/09 06:55:31;;;;;;;63.90;32.77;;;;;;;-8.83;65.65;93280.69;1845002;76;21239;-74
2021/03/09 06:58:11;;;;;;;52.63;27.27;;;;;;;-8.64;65.89;93279.98;1844677;76;21755;-76
2021/03/09 07:00:40;;;;;;;42.33;21.70;;;;;;;-8.43;65.86;93281.86;1844668;77;21173;-74
2021/03/09 07:03:38;;;;;;;41.43;20.97;;;;;;;-8.30;65.79;93278.53;1845992;77;21277;-75
2021/03/09 07:06:07;;;;;;;26.63;14.20;;;;;;;-8.14;66.68;93279.91;1839894;77;21166;-76
2021/03/09 07:08:34;;;;;;;22.77;12.20;;;;;;;-7.86;66.32;93281.41;1802909;79;21365;-74
2021/03/09 07:11:02;;;;;;;23.37;12.47;;;;;;;-7.64;66.41;93277.68;1797086;78;21184;-74
2021/03/09 07:13:32;;;;;;;23.37;12.17;;;;;;;-7.30;67.57;93282.50;1796400;77;21378;-74
2021/03/09 07:16:01;;;;;;;30.07;16.33;;;;;;;-6.79;65.94;93281.16;1778451;79;21183;-75
2021/03/09 07:18:31;;;;;;;26.17;14.77;;;;;;;-6.20;65.44;93282.23;1816425;77;21157;-74
2021/03/09 07:20:58;;;;;;;23.80;13.23;;;;;;;-5.42;63.96;93284.30;1836663;77;21352;-75
2021/03/09 07:23:26;;;;;;;28.33;13.87;;;;;;;-4.66;62.65;93279.11;1838568;78;21165;-74
2021/03/09 07:25:57;;;;;;;22.43;13.33;;;;;;;-3.95;59.74;93276.98;1838295;77;21578;-75
2021/03/09 07:28:30;;;;;;;16.90;9.80;;;;;;;-3.33;57.86;93271.51;1839048;77;21174;-74
2021/03/09 07:30:58;;;;;;;20.37;12.98;;;;;;;-2.57;56.16;93273.66;1838021;77;21629;-74
2021/03/09 07:33:28;;;;;;;16.82;8.40;;;;;;;-2.04;54.32;93278.30;1838776;78;21368;-74
2021/03/09 07:36:03;;;;;;;16.82;10.08;;;;;;;-1.61;53.46;93276.00;1837949;77;21634;-74
2021/03/09 07:38:31;;;;;;;18.80;11.40;;;;;;;-1.27;52.60;93273.13;1748894;79;21176;-74
2021/03/09 07:40:59;;;;;;;15.98;10.25;;;;;;;-1.23;51.92;93275.38;1797691;78;21379;-74
2021/03/09 07:43:27;;;;;;;24.98;15.05;;;;;;;-1.42;51.45;93268.92;1796070;78;21656;-74
2021/03/09 07:45:54;;;;;;;24.92;15.65;;;;;;;-1.62;51.87;93269.09;1812270;78;22647;-74
2021/03/09 07:48:22;;;;;;;17.40;10.58;;;;;;;-1.72;52.58;93272.36;1831554;77;21654;-76
2021/03/09 07:50:49;;;;;;;13.93;7.83;;;;;;;-1.72;53.31;93267.59;1794839;79;21492;-74
2021/03/09 07:53:19;;;;;;;13.13;9.83;;;;;;;-1.64;53.10;93270.75;1833110;78;21169;-74
2021/03/09 07:55:51;;;;;;;8.68;6.05;;;;;;;-1.53;53.13;93263.17;1836836;78;22038;-74
2021/03/09 07:58:26;;;;;;;10.72;6.30;;;;;;;-1.33;53.50;93262.96;1834961;78;21133;-74
2021/03/09 08:01:02;;;;;;;17.35;9.08;;;;;;;-1.04;52.68;93258.91;1837620;77;21809;-75
2021/03/09 08:03:31;;;;;;;14.85;9.03;;;;;;;-0.59;51.65;93254.21;1838210;78;21242;-74
2021/03/09 08:06:07;;;;;;;20.25;10.35;;;;;;;-0.13;50.29;93252.88;1840691;78;21119;-76
2021/03/09 08:08:45;;;;;;;15.88;9.33;;;;;;;0.17;49.97;93242.77;1842014;77;21340;-74
2021/03/09 08:11:27;;;;;;;14.20;8.05;;;;;;;0.52;49.24;93253.80;1804396;78;21371;-74
2021/03/09 08:14:08;;;;;;;16.23;10.05;;;;;;;0.72;48.98;93244.88;1828242;78;21089;-74
2021/03/09 08:16:44;;;;;;;17.95;9.80;;;;;;;0.97;48.74;93238.11;1840082;78;21190;-75
2021/03/09 08:19:30;;;;;;;13.80;8.90;;;;;;;1.33;48.36;93235.11;1822614;77;21219;-74
2021/03/09 08:22:01;;;;;;;13.68;7.65;;;;;;;1.78;48.09;93232.09;1810892;78;21624;-74
2021/03/09 08:24:46;;;;;;;12.93;8.85;;;;;;;2.36;47.53;93237.73;1840060;77;21358;-75
2021/03/09 08:27:33;;;;;;;9.60;5.72;;;;;;;2.63;45.54;93232.59;1840320;78;21154;-76
2021/03/09 08:30:17;;;;;;;7.33;4.95;;;;;;;2.75;44.63;93236.53;1807408;79;21146;-75
2021/03/09 08:32:45;;;;;;;5.58;3.62;;;;;;;3.07;43.92;93237.20;1812017;77;21470;-76
2021/03/09 08:35:18;;;;;;;7.47;4.80;;;;;;;3.52;41.89;93242.53;1847824;77;21465;-76
2021/03/09 08:37:50;;;;;;;6.17;3.98;;;;;;;3.94;41.48;93241.77;1818338;77;21725;-75
2021/03/09 08:40:20;;;;;;;4.47;3.17;;;;;;;4.22;40.47;93240.73;1800311;79;21152;-75
2021/03/09 08:43:11;;;;;;;2.92;2.58;;;;;;;4.44;39.62;93231.06;1805977;78;21039;-75
2021/03/09 08:45:41;;;;;;;2.58;2.22;;;;;;;4.63;38.54;93227.73;1834727;77;21144;-76
2021/03/09 08:48:11;;;;;;;3.10;2.27;;;;;;;4.71;38.43;93221.12;1798151;79;21180;-76
2021/03/09 08:50:46;;;;;;;3.17;2.42;;;;;;;4.75;37.95;93213.86;1771259;80;21366;-76
2021/03/09 08:53:29;;;;;;;2.72;1.92;;;;;;;4.84;37.44;93221.10;1776577;80;21603;-77
2021/03/09 08:56:00;;;;;;;2.70;2.00;;;;;;;5.05;36.90;93216.02;1799397;79;21199;-76
2021/03/09 08:58:28;;;;;;;2.20;1.85;;;;;;;5.33;36.67;93213.47;1823036;78;21650;-75
2021/03/09 09:00:57;;;;;;;2.87;1.95;;;;;;;5.60;35.67;93206.08;1828099;77;21188;-78
2021/03/09 09:03:26;;;;;;;2.52;1.80;;;;;;;5.76;33.96;93209.36;1796038;79;21187;-77
2021/03/09 09:05:53;;;;;;;2.00;1.85;;;;;;;5.69;33.81;93212.55;1813054;79;21195;-80
2021/03/09 09:08:21;;;;;;;1.92;1.80;;;;;;;5.22;33.47;93212.56;1831511;78;21205;-78
2021/03/09 09:10:48;;;;;;;2.55;2.33;;;;;;;4.56;34.15;93215.52;1838364;78;21143;-77
2021/03/09 09:13:16;;;;;;;2.85;2.15;;;;;;;3.88;35.16;93217.66;1838622;78;21154;-77
2021/03/09 09:15:43;;;;;;;2.02;1.90;;;;;;;3.27;36.59;93213.03;1838508;77;21158;-76
2021/03/09 09:18:12;;;;;;;2.87;2.20;;;;;;;2.99;37.03;93216.70;1839132;78;21139;-76
2021/03/09 09:20:49;;;;;;;2.62;2.30;;;;;;;2.88;37.44;93213.01;1801513;78;21992;-78
2021/03/09 09:23:27;;;;;;;2.90;2.02;;;;;;;2.76;37.97;93205.08;1824735;78;21180;-77
2021/03/09 09:26:03;;;;;;;1.95;1.60;;;;;;;2.64;38.86;93205.98;1836746;77;21454;-78
2021/03/09 09:28:38;;;;;;;2.58;2.17;;;;;;;2.59;38.86;93198.95;1836000;77;21388;-77
2021/03/09 09:31:17;;;;;;;3.62;2.00;;;;;;;2.80;39.21;93199.22;1837425;78;21214;-79
2021/03/09 09:33:49;;;;;;;3.02;2.17;;;;;;;3.11;39.17;93199.09;1837812;78;21455;-79
2021/03/09 09:36:20;;;;;;;3.05;2.37;;;;;;;3.16;39.28;93199.41;1837772;78;21162;-78
2021/03/09 09:38:53;;;;;;;12.68;6.08;;;;;;;2.93;38.50;93203.33;1838845;78;21178;-77
2021/03/09 09:41:22;;;;;;;6.65;3.75;;;;;;;2.58;38.18;93202.77;1809020;78;21192;-76
2021/03/09 09:43:49;;;;;;;4.58;2.65;;;;;;;2.32;38.87;93210.61;1817380;78;21229;-76
2021/03/09 09:46:25;;;;;;;4.80;2.60;;;;;;;2.00;39.99;93211.97;1804119;79;21217;-77
2021/03/09 09:48:53;;;;;;;5.05;3.65;;;;;;;2.00;39.99;93211.97;1808767;77;21126;-76
2021/03/09 09:51:24;;;;;;;6.45;3.30;;;;;;;1.83;39.93;93210.39;1841093;77;21630;-75
2021/03/09 09:53:52;;;;;;;3.75;3.10;;;;;;;1.59;39.72;93215.34;1841152;77;21667;-79
2021/03/09 09:56:24;;;;;;;3.95;2.50;;;;;;;1.42;40.78;93215.63;1815746;77;21140;-76
2021/03/09 09:58:57;;;;;;;3.40;2.30;;;;;;;1.25;40.77;93214.61;1818860;78;21121;-76
2021/03/09 10:01:39;;;;;;;3.10;1.90;;;;;;;1.18;40.85;93219.20;1839745;77;21154;-78
2021/03/09 10:04:09;;;;;;;3.20;2.42;;;;;;;1.16;40.80;93216.07;1839184;77;21356;-76
2021/03/09 10:06:45;;;;;;;2.92;2.25;;;;;;;1.23;40.54;93211.48;1813459;78;41207;-77
2021/03/09 10:09:17;;;;;;;1.82;1.60;;;;;;;1.33;39.68;93206.41;1839405;78;21190;-78
2021/03/09 10:11:52;;;;;;;2.25;2.05;;;;;;;1.55;39.24;93203.75;1838978;77;21131;-79
2021/03/09 10:14:22;;;;;;;2.27;2.08;;;;;;;1.73;38.16;93203.41;1839761;78;21142;-77
2021/03/09 10:16:49;;;;;;;2.45;2.22;;;;;;;1.80;39.28;93211.06;1838989;77;21135;-80
2021/03/09 10:19:19;;;;;;;2.92;2.27;;;;;;;1.91;38.08;93212.68;1831661;78;21204;-79
2021/03/09 10:21:47;;;;;;;2.85;2.20;;;;;;;1.88;36.50;93214.70;1796511;79;21172;-77
2021/03/09 10:24:28;;;;;;;2.75;2.08;;;;;;;1.87;36.69;93213.16;1837815;78;21675;-76
2021/03/09 10:26:56;;;;;;;3.45;3.10;;;;;;;1.83;38.08;93206.36;1803585;78;21176;-76
2021/03/09 10:29:29;;;;;;;2.50;1.90;;;;;;;1.83;38.79;93199.66;1822475;78;21173;-78
2021/03/09 10:31:58;;;;;;;2.05;1.85;;;;;;;1.85;37.68;93202.79;1839400;78;21538;-77
2021/03/09 10:34:56;;;;;;;1.82;1.72;;;;;;;1.73;37.08;93198.85;1830792;78;21136;-78
2021/03/09 10:37:35;;;;;;;1.85;1.75;;;;;;;1.65;39.01;93199.77;1805142;78;21145;-77
2021/03/09 10:40:10;;;;;;;2.55;2.35;;;;;;;1.83;38.04;93198.89;1838815;78;21496;-78
2021/03/09 10:42:48;;;;;;;2.60;2.00;;;;;;;2.01;38.46;93193.97;1797148;78;21137;-78
2021/03/09 10:45:26;;;;;;;2.02;1.60;;;;;;;2.12;37.42;93188.30;1836094;78;21806;-80
2021/03/09 10:48:01;;;;;;;3.20;2.30;;;;;;;2.11;37.19;93190.20;1806540;78;21168;-79
2021/03/09 10:50:39;;;;;;;2.10;1.80;;;;;;;2.14;37.85;93192.20;1822966;78;21112;-80
2021/03/09 10:53:06;;;;;;;2.25;1.82;;;;;;;2.21;38.10;93186.77;1839104;77;21167;-79
2021/03/09 10:55:34;;;;;;;2.58;2.15;;;;;;;2.24;38.06;93179.37;1839549;77;21071;-79
2021/03/09 10:58:02;;;;;;;2.85;2.30;;;;;;;2.21;38.32;93182.75;1839219;77;21482;-81
2021/03/09 11:00:29;;;;;;;2.87;2.62;;;;;;;2.17;37.09;93184.00;1828676;78;21174;-82
2021/03/09 11:02:57;;;;;;;6.17;4.40;;;;;;;2.14;39.05;93170.74;1829665;76;21152;-79
2021/03/09 11:05:25;;;;;;;6.12;3.60;;;;;;;2.14;38.90;93173.96;1848307;77;21406;-82
2021/03/09 11:07:53;;;;;;;3.90;3.27;;;;;;;2.12;38.99;93168.19;1847844;77;21186;-82
2021/03/09 11:10:20;;;;;;;3.58;2.85;;;;;;;2.15;40.06;93164.81;1846640;77;21698;-81
2021/03/09 11:12:48;;;;;;;4.22;2.92;;;;;;;2.19;40.71;93158.96;1842897;77;21159;-78
2021/03/09 11:15:16;;;;;;;5.37;3.20;;;;;;;2.21;40.55;93150.55;1841405;77;21203;-81
2021/03/09 11:17:44;;;;;;;3.70;2.70;;;;;;;2.19;40.91;93153.03;1815551;77;21734;-81
2021/03/09 11:20:14;;;;;;;4.33;3.12;;;;;;;2.21;41.37;93155.35;1801815;79;21169;-80
2021/03/09 11:22:41;;;;;;;4.15;3.40;;;;;;;2.23;42.16;93148.31;1812592;78;21602;-80
2021/03/09 11:25:11;;;;;;;5.50;3.92;;;;;;;2.30;42.37;93143.89;1831942;78;21138;-77
2021/03/09 11:27:39;;;;;;;4.78;3.62;;;;;;;2.33;42.66;93147.22;1839346;77;21202;-81
2021/03/09 11:30:08;;;;;;;6.47;4.00;;;;;;;2.42;42.73;93141.65;1806965;77;21176;-80
2021/03/09 11:32:35;;;;;;;4.37;3.67;;;;;;;2.52;41.69;93137.09;1820215;78;21165;-80
2021/03/09 11:35:05;;;;;;;4.53;3.27;;;;;;;2.64;42.16;93136.18;1840906;78;21647;-77
2021/03/09 11:37:32;;;;;;;4.33;3.27;;;;;;;2.67;41.51;93141.63;1840648;78;21632;-78
2021/03/09 11:40:02;;;;;;;22.48;16.80;;;;;;;2.47;41.96;93140.02;1840155;77;21668;-79